Time;durP1;ratioP1;P1;durP2;ratioP2;P2;SDS_P1;SDS_P2;PMS_P1;PMS_P2;Temp;Humidity;BMP_temperature;BMP_pressure;BME280_temperature;BME280_humidity;BME280_pressure;Samples;Min_cycle;Max_cycle;Signal;HPM_P1;HPM_P2
2023/09/12 00:00:35;;;;;;;13.60;5.85;;;;;;;;;;5014097;28;20069;-65
2023/09/12 00:03:03;;;;;;;16.75;5.63;;;;;;;;;;5014039;28;20045;-65
2023/09/12 00:05:30;;;;;;;15.38;4.82;;;;;;;;;;5012885;28;20042;-65
2023/09/12 00:07:58;;;;;;;13.63;5.30;;;;;;;;;;5014121;28;20518;-65
2023/09/12 00:10:25;;;;;;;14.63;5.80;;;;;;;;;;5014058;28;20484;-65
2023/09/12 00:12:54;;;;;;;19.25;6.18;;;;;;;;;;5013494;28;20046;-66
2023/09/12 00:15:22;;;;;;;13.52;5.35;;;;;;;;;;5013643;28;20042;-65
2023/09/12 00:17:49;;;;;;;19.08;5.68;;;;;;;;;;5013869;28;20115;-65
2023/09/12 00:20:17;;;;;;;12.20;5.75;;;;;;;;;;5013789;28;20042;-65
2023/09/12 00:22:44;;;;;;;12.68;5.82;;;;;;;;;;5013790;28;20061;-66
2023/09/12 00:25:12;;;;;;;16.70;5.38;;;;;;;;;;5013774;28;20038;-65
2023/09/12 00:27:39;;;;;;;14.85;5.60;;;;;;;;;;5013742;28;20539;-65
2023/09/12 00:30:07;;;;;;;17.15;5.88;;;;;;;;;;5012315;28;20050;-65
2023/09/12 00:32:35;;;;;;;13.38;5.65;;;;;;;;;;5013542;28;20395;-65
2023/09/12 00:35:03;;;;;;;14.95;5.30;;;;;;;;;;5013595;28;20038;-65
2023/09/12 00:37:30;;;;;;;18.63;6.38;;;;;;;;;;5012117;28;20048;-65
2023/09/12 00:39:58;;;;;;;17.77;6.07;;;;;;;;;;5011922;28;20462;-65
2023/09/12 00:42:28;;;;;;;9.38;5.28;;;;;;;;;;5011814;28;20132;-65
2023/09/12 00:44:56;;;;;;;12.10;4.85;;;;;;;;;;5012039;28;20050;-65
2023/09/12 00:47:24;;;;;;;19.55;5.30;;;;;;;;;;5013397;28;20138;-65
2023/09/12 00:49:51;;;;;;;17.65;5.57;;;;;;;;;;5013370;28;20060;-66
2023/09/12 00:52:24;;;;;;;13.02;5.65;;;;;;;;;;5012070;28;20072;-65
2023/09/12 00:54:52;;;;;;;11.90;5.65;;;;;;;;;;5013325;28;20038;-65
2023/09/12 00:57:20;;;;;;;12.43;5.03;;;;;;;;;;5011968;28;20056;-65
2023/09/12 00:59:49;;;;;;;13.57;5.22;;;;;;;;;;5011985;28;20474;-65
2023/09/12 01:02:16;;;;;;;9.52;5.20;;;;;;;;;;5011857;28;20049;-65
2023/09/12 01:04:44;;;;;;;18.10;6.00;;;;;;;;;;5011721;28;20479;-66
2023/09/12 01:07:12;;;;;;;13.25;5.65;;;;;;;;;;5011865;28;20054;-66
2023/09/12 01:09:40;;;;;;;17.25;5.68;;;;;;;;;;5011727;28;20050;-65
2023/09/12 01:12:14;;;;;;;13.90;6.03;;;;;;;;;;5011628;28;20141;-65
2023/09/12 01:14:42;;;;;;;14.57;5.57;;;;;;;;;;5011646;28;20065;-65
2023/09/12 01:17:09;;;;;;;12.65;5.85;;;;;;;;;;5011720;28;20049;-65
2023/09/12 01:19:37;;;;;;;13.23;5.75;;;;;;;;;;5013012;28;20046;-65
2023/09/12 01:22:11;;;;;;;15.18;5.90;;;;;;;;;;5011591;28;20046;-65
2023/09/12 01:24:39;;;;;;;;;;;;;;;;;;5012114;28;20141;-65
2023/09/12 01:27:36;;;;;;;17.77;6.10;;;;;;;;;;5011656;28;19944;-65
2023/09/12 01:30:06;;;;;;;12.77;5.78;;;;;;;;;;4999320;28;20045;-65
2023/09/12 01:32:33;;;;;;;11.82;5.07;;;;;;;;;;4995458;28;20038;-65
2023/09/12 01:35:04;;;;;;;12.88;5.15;;;;;;;;;;5011504;28;20129;-66
2023/09/12 01:37:32;;;;;;;14.90;5.63;;;;;;;;;;5011515;28;20041;-66
2023/09/12 01:39:59;;;;;;;21.55;6.40;;;;;;;;;;5011426;28;20054;-66
2023/09/12 01:42:29;;;;;;;11.88;6.32;;;;;;;;;;5011589;28;20092;-66
2023/09/12 01:44:58;;;;;;;13.75;6.47;;;;;;;;;;5011461;28;20046;-66
2023/09/12 01:47:26;;;;;;;19.10;6.95;;;;;;;;;;5011450;28;20046;-66
2023/09/12 01:49:56;;;;;;;19.05;7.05;;;;;;;;;;5012732;28;20042;-66
2023/09/12 01:52:25;;;;;;;20.73;7.35;;;;;;;;;;5011319;28;20455;-66
2023/09/12 01:54:53;;;;;;;22.45;7.57;;;;;;;;;;5011378;28;20396;-66
2023/09/12 01:57:21;;;;;;;14.60;6.53;;;;;;;;;;5011324;28;20100;-66
2023/09/12 01:59:49;;;;;;;13.45;6.95;;;;;;;;;;5011400;28;20161;-66
2023/09/12 02:02:17;;;;;;;15.80;7.70;;;;;;;;;;5011283;28;20115;-66
2023/09/12 02:04:52;;;;;;;18.75;7.78;;;;;;;;;;5012540;28;20049;-67
2023/09/12 02:07:19;;;;;;;17.25;6.85;;;;;;;;;;5011242;28;20506;-66
2023/09/12 02:09:48;;;;;;;16.65;6.50;;;;;;;;;;5012501;28;20038;-66
2023/09/12 02:12:15;;;;;;;15.63;7.40;;;;;;;;;;5011108;28;20065;-66
2023/09/12 02:14:43;;;;;;;25.52;7.40;;;;;;;;;;5011210;28;20092;-66
2023/09/12 02:17:10;;;;;;;14.55;6.88;;;;;;;;;;5011157;28;20046;-66
2023/09/12 02:19:38;;;;;;;16.27;6.07;;;;;;;;;;5012411;28;20049;-66
2023/09/12 02:22:06;;;;;;;17.90;6.68;;;;;;;;;;5012378;28;20042;-66
2023/09/12 02:24:35;;;;;;;13.43;5.90;;;;;;;;;;5011047;28;20038;-66
2023/09/12 02:27:02;;;;;;;13.68;6.43;;;;;;;;;;5011207;28;20447;-66
2023/09/12 02:29:32;;;;;;;14.20;6.28;;;;;;;;;;5012233;28;20045;-66
2023/09/12 02:32:00;;;;;;;11.73;5.00;;;;;;;;;;5010869;28;20046;-66
2023/09/12 02:34:28;;;;;;;9.98;4.68;;;;;;;;;;5010829;28;20042;-65
2023/09/12 02:36:55;;;;;;;14.77;5.13;;;;;;;;;;5011871;28;20671;-66
2023/09/12 02:39:23;;;;;;;10.38;4.55;;;;;;;;;;5014450;28;20050;-65
2023/09/12 02:41:50;;;;;;;10.50;4.10;;;;;;;;;;5014441;28;20396;-66
2023/09/12 02:44:18;;;;;;;13.93;4.63;;;;;;;;;;5014542;28;20069;-65
2023/09/12 02:46:46;;;;;;;11.77;4.40;;;;;;;;;;5015613;28;20410;-65
2023/09/12 02:49:13;;;;;;;13.18;4.45;;;;;;;;;;5014230;28;20042;-64
2023/09/12 02:51:41;;;;;;;8.50;3.95;;;;;;;;;;5014337;28;20050;-65
2023/09/12 02:54:09;;;;;;;11.40;4.85;;;;;;;;;;5014211;28;20057;-65
2023/09/12 02:56:36;;;;;;;12.35;4.03;;;;;;;;;;5014154;28;20069;-66
2023/09/12 02:59:04;;;;;;;12.25;3.80;;;;;;;;;;5015329;28;20518;-66
2023/09/12 03:01:32;;;;;;;10.52;4.18;;;;;;;;;;5014088;28;20042;-66
2023/09/12 03:04:00;;;;;;;11.07;4.03;;;;;;;;;;5014101;28;20092;-66
2023/09/12 03:06:30;;;;;;;7.68;3.63;;;;;;;;;;5013931;28;20049;-64
2023/09/12 03:08:57;;;;;;;10.32;4.15;;;;;;;;;;5013885;28;20092;-65
2023/09/12 03:11:29;;;;;;;13.77;4.28;;;;;;;;;;5013666;28;20495;-65
2023/09/12 03:13:57;;;;;;;10.93;4.50;;;;;;;;;;5013738;28;20056;-66
2023/09/12 03:16:24;;;;;;;10.13;3.90;;;;;;;;;;5013642;28;20045;-65
2023/09/12 03:18:52;;;;;;;6.63;3.53;;;;;;;;;;5013659;28;20042;-65
2023/09/12 03:21:20;;;;;;;8.70;4.10;;;;;;;;;;5013714;28;20092;-65
2023/09/12 03:23:47;;;;;;;8.95;4.38;;;;;;;;;;5013612;28;20076;-65
2023/09/12 03:26:15;;;;;;;6.72;3.45;;;;;;;;;;5013569;28;20042;-65
2023/09/12 03:28:43;;;;;;;11.25;4.03;;;;;;;;;;5013574;28;20410;-65
2023/09/12 03:31:12;;;;;;;10.80;3.35;;;;;;;;;;5013500;28;20034;-65
2023/09/12 03:33:40;;;;;;;10.68;3.88;;;;;;;;;;5013401;28;20058;-65
2023/09/12 03:36:08;;;;;;;14.23;4.10;;;;;;;;;;5013222;28;20121;-65
2023/09/12 03:38:36;;;;;;;11.93;4.57;;;;;;;;;;5013335;28;20046;-65
2023/09/12 03:41:04;;;;;;;11.00;3.65;;;;;;;;;;5013203;28;20050;-65
2023/09/12 03:43:33;;;;;;;12.98;3.97;;;;;;;;;;5014820;28;20393;-65
2023/09/12 03:46:03;;;;;;;10.00;3.90;;;;;;;;;;5013068;28;20049;-65
2023/09/12 03:48:31;;;;;;;17.40;4.13;;;;;;;;;;5013510;28;20060;-65
2023/09/12 03:50:59;;;;;;;11.38;4.10;;;;;;;;;;5013149;28;20238;-66
2023/09/12 03:53:27;;;;;;;7.38;3.53;;;;;;;;;;5013018;28;20479;-65
2023/09/12 03:55:55;;;;;;;11.65;4.13;;;;;;;;;;5014271;28;20125;-65
2023/09/12 03:58:23;;;;;;;15.57;4.03;;;;;;;;;;4996724;28;20046;-65
2023/09/12 04:00:50;;;;;;;10.43;4.00;;;;;;;;;;4996833;28;20049;-65
2023/09/12 04:03:18;;;;;;;9.68;3.90;;;;;;;;;;5014080;28;20053;-65
2023/09/12 04:05:47;;;;;;;10.75;4.03;;;;;;;;;;5012855;28;20133;-65
2023/09/12 04:08:14;;;;;;;13.88;3.97;;;;;;;;;;5012770;28;20441;-65
2023/09/12 04:10:42;;;;;;;12.43;3.90;;;;;;;;;;5014101;28;20045;-65
2023/09/12 04:13:10;;;;;;;12.77;4.13;;;;;;;;;;5012696;28;20056;-65
2023/09/12 04:15:37;;;;;;;20.77;4.93;;;;;;;;;;5012570;28;20053;-65
2023/09/12 04:18:05;;;;;;;10.10;3.90;;;;;;;;;;4996449;28;20136;-65
2023/09/12 04:20:33;;;;;;;19.67;4.82;;;;;;;;;;5012576;28;20038;-65
2023/09/12 04:23:02;;;;;;;30.13;11.18;;;;;;;;;;5012475;28;20049;-65
2023/09/12 04:25:30;;;;;;;64.45;30.40;;;;;;;;;;5018719;28;20045;-66
2023/09/12 04:27:58;;;;;;;74.32;34.42;;;;;;;;;;5031670;28;20034;-65
2023/09/12 04:30:26;;;;;;;62.55;30.90;;;;;;;;;;5031575;28;20081;-65
2023/09/12 04:32:54;;;;;;;49.88;19.75;;;;;;;;;;5029880;28;20495;-65
2023/09/12 04:35:24;;;;;;;53.30;18.33;;;;;;;;;;5030691;28;20041;-65
2023/09/12 04:37:52;;;;;;;57.15;14.30;;;;;;;;;;5032072;28;20107;-66
2023/09/12 04:40:19;;;;;;;33.28;8.65;;;;;;;;;;5031841;28;20058;-65
2023/09/12 04:42:47;;;;;;;44.00;12.32;;;;;;;;;;5031738;28;20053;-65
2023/09/12 04:45:14;;;;;;;25.73;6.57;;;;;;;;;;5031765;28;20084;-65
2023/09/12 04:47:42;;;;;;;24.95;6.82;;;;;;;;;;5031812;28;20045;-66
2023/09/12 04:50:11;;;;;;;16.17;5.93;;;;;;;;;;5033190;28;20044;-66
2023/09/12 04:52:39;;;;;;;30.30;7.13;;;;;;;;;;5031736;28;20415;-67
2023/09/12 04:55:06;;;;;;;24.50;8.20;;;;;;;;;;5031794;28;20124;-66
2023/09/12 04:57:34;;;;;;;18.13;7.40;;;;;;;;;;5031650;28;20091;-66
2023/09/12 05:00:02;;;;;;;23.42;8.10;;;;;;;;;;5031433;28;20128;-66
2023/09/12 05:02:29;;;;;;;34.50;8.65;;;;;;;;;;5031597;28;20045;-66
2023/09/12 05:04:57;;;;;;;26.90;7.53;;;;;;;;;;5015443;28;20495;-66
2023/09/12 05:07:25;;;;;;;30.77;8.88;;;;;;;;;;5031615;28;20566;-65
2023/09/12 05:09:52;;;;;;;21.17;8.77;;;;;;;;;;5031521;28;20054;-70
2023/09/12 05:12:20;;;;;;;21.02;8.80;;;;;;;;;;5031519;28;20041;-71
2023/09/12 05:14:48;;;;;;;23.10;8.55;;;;;;;;;;5031471;28;20068;-71
2023/09/12 05:17:15;;;;;;;29.88;9.00;;;;;;;;;;5032742;28;20092;-71
2023/09/12 05:19:43;;;;;;;28.42;10.27;;;;;;;;;;5031469;28;20053;-70
2023/09/12 05:22:11;;;;;;;34.95;11.57;;;;;;;;;;5031421;28;20201;-70
2023/09/12 05:24:39;;;;;;;40.08;13.23;;;;;;;;;;5032713;28;20052;-72
2023/09/12 05:27:06;;;;;;;59.47;15.68;;;;;;;;;;4988997;28;20100;-71
2023/09/12 05:29:34;;;;;;;48.63;17.33;;;;;;;;;;5034234;28;20096;-74
2023/09/12 05:32:01;;;;;;;43.35;18.30;;;;;;;;;;4991064;28;20046;-71
2023/09/12 05:34:29;;;;;;;59.88;20.00;;;;;;;;;;5001847;28;20381;-73
2023/09/12 05:36:57;;;;;;;37.13;17.38;;;;;;;;;;4994507;28;20053;-73
2023/09/12 05:39:25;;;;;;;53.60;19.65;;;;;;;;;;5004290;28;20074;-73
2023/09/12 05:41:52;;;;;;;44.95;18.45;;;;;;;;;;5004827;28;20057;-73
2023/09/12 05:44:20;;;;;;;34.10;16.33;;;;;;;;;;4991758;28;20157;-74
2023/09/12 05:46:48;;;;;;;34.53;14.55;;;;;;;;;;5024324;28;20072;-72
2023/09/12 05:49:16;;;;;;;27.27;13.88;;;;;;;;;;5005557;28;20046;-72
2023/09/12 05:51:44;;;;;;;33.10;14.63;;;;;;;;;;5005090;28;20056;-72
2023/09/12 05:54:13;;;;;;;27.85;14.10;;;;;;;;;;5007591;28;20054;-72
2023/09/12 05:56:41;;;;;;;30.38;13.82;;;;;;;;;;5005673;28;20045;-72
2023/09/12 05:59:08;;;;;;;32.28;13.68;;;;;;;;;;5007281;28;20057;-73
2023/09/12 06:01:36;;;;;;;29.25;12.40;;;;;;;;;;4991788;28;20501;-73
2023/09/12 06:04:04;;;;;;;31.23;11.98;;;;;;;;;;5005484;28;20049;-73
2023/09/12 06:06:33;;;;;;;34.78;11.10;;;;;;;;;;5004479;28;20089;-74
2023/09/12 06:09:00;;;;;;;25.83;8.70;;;;;;;;;;4990536;28;20046;-73
2023/09/12 06:11:28;;;;;;;32.92;9.50;;;;;;;;;;4988028;28;20085;-74
2023/09/12 06:13:55;;;;;;;22.63;9.77;;;;;;;;;;4991020;28;20519;-73
2023/09/12 06:16:23;;;;;;;20.33;9.77;;;;;;;;;;5022202;28;20058;-75
2023/09/12 06:18:51;;;;;;;28.20;9.88;;;;;;;;;;4994333;28;20391;-76
2023/09/12 06:21:18;;;;;;;32.30;10.20;;;;;;;;;;5004607;28;20046;-73
2023/09/12 06:23:46;;;;;;;36.70;10.18;;;;;;;;;;4991239;28;20112;-77
2023/09/12 06:26:13;;;;;;;25.35;9.82;;;;;;;;;;4990610;28;20038;-76
2023/09/12 06:28:41;;;;;;;25.02;10.13;;;;;;;;;;5022150;28;20728;-76
2023/09/12 06:31:09;;;;;;;30.88;15.10;;;;;;;;;;4990902;28;20392;-78
2023/09/12 06:33:38;;;;;;;31.20;15.77;;;;;;;;;;4991350;28;20070;-74
2023/09/12 06:36:06;;;;;;;26.27;12.93;;;;;;;;;;5002770;28;20042;-76
2023/09/12 06:38:33;;;;;;;23.92;10.63;;;;;;;;;;5004578;28;20077;-77
2023/09/12 06:41:01;;;;;;;24.55;12.48;;;;;;;;;;5008184;28;20100;-75
2023/09/12 06:43:30;;;;;;;20.58;9.07;;;;;;;;;;5008409;28;20918;-76
2023/09/12 06:45:58;;;;;;;22.23;6.68;;;;;;;;;;5010041;28;20431;-76
2023/09/12 06:48:25;;;;;;;16.05;7.10;;;;;;;;;;5009717;28;20037;-76
2023/09/12 06:50:54;;;;;;;16.13;5.85;;;;;;;;;;5009145;28;20049;-75
2023/09/12 06:53:22;;;;;;;14.90;6.60;;;;;;;;;;5007884;28;20054;-76
2023/09/12 06:55:50;;;;;;;19.10;8.20;;;;;;;;;;5009380;28;20054;-77
2023/09/12 06:58:17;;;;;;;21.77;6.32;;;;;;;;;;5009133;28;20535;-76
2023/09/12 07:00:45;;;;;;;14.43;6.57;;;;;;;;;;5009148;28;20100;-77
2023/09/12 07:03:13;;;;;;;15.75;6.30;;;;;;;;;;4994121;28;20035;-77
2023/09/12 07:05:44;;;;;;;15.32;6.50;;;;;;;;;;4989752;28;20101;-77
2023/09/12 07:08:11;;;;;;;13.25;6.22;;;;;;;;;;4989623;28;20416;-75
2023/09/12 07:10:45;;;;;;;14.02;5.68;;;;;;;;;;4989944;28;20145;-76
2023/09/12 07:13:12;;;;;;;12.05;5.10;;;;;;;;;;4989554;28;20053;-76
2023/09/12 07:15:40;;;;;;;10.82;5.30;;;;;;;;;;4989402;28;20049;-76
2023/09/12 07:18:08;;;;;;;44.08;6.78;;;;;;;;;;4989315;28;20465;-74
2023/09/12 07:20:35;;;;;;;19.13;6.05;;;;;;;;;;4991670;28;20056;-74
2023/09/12 07:23:03;;;;;;;13.95;5.20;;;;;;;;;;4988826;28;20088;-76
2023/09/12 07:25:30;;;;;;;11.90;4.60;;;;;;;;;;4989007;28;20469;-76
2023/09/12 07:27:58;;;;;;;12.82;4.18;;;;;;;;;;4989141;28;20289;-78
2023/09/12 07:30:25;;;;;;;13.52;5.22;;;;;;;;;;4988780;28;20110;-77
2023/09/12 07:32:53;;;;;;;13.88;5.68;;;;;;;;;;4989282;28;20137;-76
2023/09/12 07:35:23;;;;;;;11.02;4.85;;;;;;;;;;4989068;28;20030;-75
2023/09/12 07:37:51;;;;;;;10.48;4.05;;;;;;;;;;5007648;28;20037;-76
2023/09/12 07:40:18;;;;;;;16.73;4.40;;;;;;;;;;5008146;28;20508;-76
2023/09/12 07:42:46;;;;;;;10.80;4.28;;;;;;;;;;5008407;28;20042;-77
2023/09/12 07:45:14;;;;;;;9.90;4.32;;;;;;;;;;5013820;28;20507;-77
2023/09/12 07:47:41;;;;;;;12.23;4.18;;;;;;;;;;5013035;28;20058;-77
2023/09/12 07:50:09;;;;;;;15.43;4.43;;;;;;;;;;5013427;28;20046;-76
2023/09/12 07:52:37;;;;;;;12.95;4.93;;;;;;;;;;5012622;28;20042;-77
2023/09/12 07:55:04;;;;;;;11.02;4.40;;;;;;;;;;5014073;28;20050;-76
2023/09/12 07:57:33;;;;;;;17.27;5.75;;;;;;;;;;5014201;28;20042;-77
2023/09/12 08:00:01;;;;;;;16.02;4.07;;;;;;;;;;5014292;28;20042;-77
2023/09/12 08:02:37;;;;;;;10.48;4.90;;;;;;;;;;5014411;28;20052;-76
2023/09/12 08:05:06;;;;;;;12.35;4.40;;;;;;;;;;5014227;28;20061;-77
2023/09/12 08:07:33;;;;;;;16.30;4.28;;;;;;;;;;5014196;28;20034;-77
2023/09/12 08:10:01;;;;;;;15.82;5.35;;;;;;;;;;5014505;28;20431;-76
2023/09/12 08:12:29;;;;;;;15.88;5.63;;;;;;;;;;5014091;28;20050;-80
2023/09/12 08:14:56;;;;;;;12.93;4.32;;;;;;;;;;5013662;28;20045;-79
2023/09/12 08:17:24;;;;;;;9.88;3.03;;;;;;;;;;5014240;28;20053;-79
2023/09/12 08:19:51;;;;;;;11.13;4.65;;;;;;;;;;5014000;28;20046;-79
2023/09/12 08:22:19;;;;;;;19.73;4.10;;;;;;;;;;5013919;28;20045;-78
2023/09/12 08:24:47;;;;;;;14.85;3.70;;;;;;;;;;5012385;28;20070;-79
2023/09/12 08:27:14;;;;;;;9.90;3.50;;;;;;;;;;5013698;28;20037;-74
2023/09/12 08:29:44;;;;;;;11.20;3.50;;;;;;;;;;5013815;28;20069;-74
2023/09/12 08:32:11;;;;;;;10.30;3.30;;;;;;;;;;5013623;28;20038;-73
2023/09/12 08:34:39;;;;;;;10.82;3.80;;;;;;;;;;5012565;28;20128;-74
2023/09/12 08:37:06;;;;;;;10.88;4.32;;;;;;;;;;5012124;28;20077;-75
2023/09/12 08:39:45;;;;;;;17.77;4.57;;;;;;;;;;5013228;28;20049;-74
2023/09/12 08:42:14;;;;;;;13.18;3.10;;;;;;;;;;5005165;28;20399;-74
2023/09/12 08:44:42;;;;;;;11.48;3.70;;;;;;;;;;5013614;28;20550;-74
2023/09/12 08:47:10;;;;;;;11.07;4.28;;;;;;;;;;5013400;28;20041;-74
2023/09/12 08:49:38;;;;;;;13.18;3.30;;;;;;;;;;5013528;28;20041;-75
2023/09/12 08:52:06;;;;;;;8.23;3.20;;;;;;;;;;5013424;28;20041;-75
2023/09/12 08:54:34;;;;;;;9.73;3.55;;;;;;;;;;5013183;28;20069;-74
2023/09/12 08:57:05;;;;;;;11.30;3.88;;;;;;;;;;5013667;28;20395;-73
2023/09/12 08:59:34;;;;;;;16.00;3.33;;;;;;;;;;5013399;28;20065;-79
2023/09/12 09:02:01;;;;;;;10.40;2.90;;;;;;;;;;5013408;28;20121;-75
2023/09/12 09:04:30;;;;;;;6.25;3.53;;;;;;;;;;5013388;28;20064;-74
2023/09/12 09:06:59;;;;;;;9.88;3.58;;;;;;;;;;5013264;28;20042;-74
2023/09/12 09:09:28;;;;;;;9.23;3.00;;;;;;;;;;5013658;28;20037;-75
2023/09/12 09:11:56;;;;;;;9.30;3.33;;;;;;;;;;5013067;28;20077;-74
2023/09/12 09:14:23;;;;;;;8.60;3.45;;;;;;;;;;5012982;28;20399;-76
2023/09/12 09:16:51;;;;;;;7.65;4.13;;;;;;;;;;5013146;28;20116;-75
2023/09/12 09:19:19;;;;;;;12.38;3.95;;;;;;;;;;5012959;28;20069;-75
2023/09/12 09:21:47;;;;;;;13.52;3.50;;;;;;;;;;5013008;28;20046;-75
2023/09/12 09:24:18;;;;;;;15.32;3.50;;;;;;;;;;5012973;28;20069;-74
2023/09/12 09:27:10;;;;;;;12.38;3.20;;;;;;;;;;5012864;28;20109;-75
2023/09/12 09:29:48;;;;;;;10.68;3.72;;;;;;;;;;5013208;28;20498;-74
2023/09/12 09:32:21;;;;;;;9.10;3.60;;;;;;;;;;5012821;28;20478;-74
2023/09/12 09:34:49;;;;;;;12.50;3.75;;;;;;;;;;5012906;28;20122;-75
2023/09/12 09:37:19;;;;;;;9.23;3.45;;;;;;;;;;5012153;28;20038;-71
2023/09/12 09:39:52;;;;;;;9.73;3.78;;;;;;;;;;5012686;28;20052;-72
2023/09/12 09:42:20;;;;;;;10.13;3.58;;;;;;;;;;5012774;28;20495;-71
2023/09/12 09:44:49;;;;;;;9.57;3.30;;;;;;;;;;5012794;28;20045;-71
2023/09/12 09:47:19;;;;;;;13.38;3.75;;;;;;;;;;5016259;28;20038;-71
2023/09/12 09:49:47;;;;;;;11.23;3.90;;;;;;;;;;5016916;28;20044;-71
2023/09/12 09:52:14;;;;;;;13.68;3.53;;;;;;;;;;5016816;28;20049;-71
2023/09/12 09:54:45;;;;;;;11.98;3.83;;;;;;;;;;5015556;28;20117;-75
2023/09/12 09:57:13;;;;;;;8.35;3.95;;;;;;;;;;5016565;28;20054;-68
2023/09/12 09:59:41;;;;;;;7.90;3.55;;;;;;;;;;5016508;28;20045;-71
2023/09/12 10:02:11;;;;;;;9.20;3.60;;;;;;;;;;5016523;28;20442;-70
2023/09/12 10:04:39;;;;;;;11.57;3.85;;;;;;;;;;5016688;28;20092;-70
2023/09/12 10:07:10;;;;;;;11.65;3.90;;;;;;;;;;5016480;28;20042;-69
2023/09/12 10:09:37;;;;;;;9.20;3.42;;;;;;;;;;5016351;28;20042;-72
2023/09/12 10:12:05;;;;;;;11.15;4.05;;;;;;;;;;5016193;28;20046;-71
2023/09/12 10:14:33;;;;;;;10.73;2.78;;;;;;;;;;5016118;28;20534;-74
2023/09/12 10:17:02;;;;;;;16.23;4.32;;;;;;;;;;5016276;28;20069;-74
2023/09/12 10:19:44;;;;;;;11.23;3.80;;;;;;;;;;5016157;28;20041;-77
2023/09/12 10:22:22;;;;;;;9.02;3.40;;;;;;;;;;5016158;28;20041;-75
2023/09/12 10:24:50;;;;;;;12.43;3.70;;;;;;;;;;5016037;28;20084;-74
2023/09/12 10:27:20;;;;;;;19.70;4.90;;;;;;;;;;5015182;28;20069;-73
2023/09/12 10:29:49;;;;;;;9.60;3.60;;;;;;;;;;5016067;28;20054;-74
2023/09/12 10:32:17;;;;;;;16.75;3.85;;;;;;;;;;5015976;28;20593;-74
2023/09/12 10:34:47;;;;;;;11.20;4.07;;;;;;;;;;5015849;28;20435;-74
2023/09/12 10:37:17;;;;;;;12.95;4.43;;;;;;;;;;5007179;28;20274;-72
2023/09/12 10:39:46;;;;;;;9.07;3.60;;;;;;;;;;4991029;28;20561;-74
2023/09/12 10:42:14;;;;;;;12.88;4.45;;;;;;;;;;4998144;28;20134;-73
2023/09/12 10:44:41;;;;;;;12.98;3.50;;;;;;;;;;5007628;28;20038;-71
2023/09/12 10:47:09;;;;;;;10.80;4.45;;;;;;;;;;4995028;28;20643;-73
2023/09/12 10:49:38;;;;;;;10.15;3.80;;;;;;;;;;5009728;28;20073;-73
2023/09/12 10:52:05;;;;;;;8.50;3.22;;;;;;;;;;5009771;28;20069;-72
2023/09/12 10:54:40;;;;;;;9.45;3.55;;;;;;;;;;5001393;28;20124;-73
2023/09/12 10:57:11;;;;;;;11.52;3.63;;;;;;;;;;4992188;28;20558;-71
2023/09/12 10:59:59;;;;;;;10.27;3.40;;;;;;;;;;4990475;28;20038;-72
2023/09/12 11:02:31;;;;;;;7.45;3.20;;;;;;;;;;5027795;28;20034;-73
2023/09/12 11:04:59;;;;;;;8.20;3.70;;;;;;;;;;4998078;28;20054;-72
2023/09/12 11:07:32;;;;;;;12.88;3.65;;;;;;;;;;4993710;28;20049;-73
2023/09/12 11:10:15;;;;;;;15.25;3.85;;;;;;;;;;5001746;28;20034;-72
2023/09/12 11:12:44;;;;;;;7.13;3.60;;;;;;;;;;5001985;28;20451;-72
2023/09/12 11:15:11;;;;;;;11.75;3.60;;;;;;;;;;5009169;28;20455;-75
2023/09/12 11:17:43;;;;;;;7.57;3.10;;;;;;;;;;4999108;28;20082;-73
2023/09/12 11:20:11;;;;;;;12.27;3.13;;;;;;;;;;5009408;28;20061;-72
2023/09/12 11:22:42;;;;;;;11.32;4.28;;;;;;;;;;5009746;28;20128;-76
2023/09/12 11:25:19;;;;;;;9.00;3.60;;;;;;;;;;5009622;28;20041;-73
2023/09/12 11:28:06;;;;;;;8.30;3.05;;;;;;;;;;5004487;28;20699;-71
2023/09/12 11:30:34;;;;;;;7.38;3.40;;;;;;;;;;5008480;28;20069;-71
2023/09/12 11:33:06;;;;;;;11.20;3.80;;;;;;;;;;4999032;28;20124;-73
2023/09/12 11:35:37;;;;;;;9.18;4.35;;;;;;;;;;4999776;28;20500;-75
2023/09/12 11:38:05;;;;;;;11.05;3.67;;;;;;;;;;5008811;28;20034;-74
2023/09/12 11:40:33;;;;;;;8.43;3.70;;;;;;;;;;5009292;28;20054;-74
2023/09/12 11:43:01;;;;;;;9.30;3.67;;;;;;;;;;5008149;28;20042;-75
2023/09/12 11:45:28;;;;;;;8.45;3.13;;;;;;;;;;5004169;28;20038;-72
2023/09/12 11:47:56;;;;;;;12.73;3.72;;;;;;;;;;5000690;28;20052;-73
2023/09/12 11:50:27;;;;;;;9.32;3.47;;;;;;;;;;5008745;28;20053;-73
2023/09/12 11:53:03;;;;;;;10.77;4.07;;;;;;;;;;5009189;28;20546;-76
2023/09/12 11:55:35;;;;;;;9.07;3.45;;;;;;;;;;5009267;28;20046;-74
2023/09/12 11:58:03;;;;;;;10.73;5.72;;;;;;;;;;5009407;28;20046;-73
2023/09/12 12:00:30;;;;;;;10.80;3.30;;;;;;;;;;5009029;28;20070;-74
2023/09/12 12:02:58;;;;;;;10.65;3.92;;;;;;;;;;5008871;28;20070;-71
2023/09/12 12:05:26;;;;;;;8.15;3.83;;;;;;;;;;5009167;28;20069;-73
2023/09/12 12:07:54;;;;;;;9.68;3.60;;;;;;;;;;5008744;28;20396;-74
2023/09/12 12:10:42;;;;;;;5.43;3.17;;;;;;;;;;5007608;28;20400;-72
2023/09/12 12:13:13;;;;;;;7.63;3.70;;;;;;;;;;4997206;28;20046;-72
2023/09/12 12:15:41;;;;;;;13.35;3.88;;;;;;;;;;4988736;28;20038;-72
2023/09/12 12:18:08;;;;;;;14.13;3.70;;;;;;;;;;4996316;28;20039;-72
2023/09/12 12:20:36;;;;;;;9.00;3.17;;;;;;;;;;4996085;28;20702;-72
2023/09/12 12:23:03;;;;;;;10.45;3.60;;;;;;;;;;5008496;28;20049;-72
2023/09/12 12:25:34;;;;;;;11.18;3.58;;;;;;;;;;5008108;28;20539;-72
2023/09/12 12:28:03;;;;;;;14.13;3.67;;;;;;;;;;5008167;28;20120;-72
2023/09/12 12:30:34;;;;;;;11.68;4.53;;;;;;;;;;5008410;28;20128;-73
2023/09/12 12:33:06;;;;;;;13.88;4.20;;;;;;;;;;5008812;28;20442;-73
2023/09/12 12:35:49;;;;;;;11.63;4.00;;;;;;;;;;5007391;28;20053;-73
2023/09/12 12:38:23;;;;;;;9.83;3.47;;;;;;;;;;5007870;28;20053;-72
2023/09/12 12:40:52;;;;;;;9.75;3.80;;;;;;;;;;5008055;28;20050;-72
2023/09/12 12:43:21;;;;;;;11.57;4.15;;;;;;;;;;5008359;28;20133;-72
2023/09/12 12:45:55;;;;;;;18.70;5.30;;;;;;;;;;5000300;28;20054;-72
2023/09/12 12:48:22;;;;;;;;;;;;;;;;;;5003652;28;20045;-70
2023/09/12 12:50:50;;;;;;;11.85;3.80;;;;;;;;;;5008000;28;19921;-72
2023/09/12 12:53:17;;;;;;;8.25;3.47;;;;;;;;;;5007843;28;20137;-71
2023/09/12 12:55:45;;;;;;;12.05;3.75;;;;;;;;;;5007618;28;20605;-72
2023/09/12 12:58:13;;;;;;;7.90;3.38;;;;;;;;;;5008339;28;20318;-73
2023/09/12 13:00:41;;;;;;;6.20;3.40;;;;;;;;;;5007828;28;20050;-73
2023/09/12 13:03:09;;;;;;;8.38;3.40;;;;;;;;;;5007749;28;20037;-72
2023/09/12 13:05:37;;;;;;;11.68;3.65;;;;;;;;;;5006385;28;20056;-73
2023/09/12 13:08:05;;;;;;;9.60;3.85;;;;;;;;;;4993937;28;20153;-72
2023/09/12 13:10:32;;;;;;;11.18;3.60;;;;;;;;;;5028959;28;20030;-72
2023/09/12 13:13:00;;;;;;;9.73;3.95;;;;;;;;;;5006131;28;20057;-71
2023/09/12 13:15:27;;;;;;;9.80;3.70;;;;;;;;;;5007406;28;20069;-72
2023/09/12 13:17:55;;;;;;;9.60;4.15;;;;;;;;;;5007067;28;20049;-72
2023/09/12 13:20:23;;;;;;;13.02;3.75;;;;;;;;;;5007356;28;20107;-72
2023/09/12 13:22:51;;;;;;;11.25;3.70;;;;;;;;;;5007610;28;20049;-73
2023/09/12 13:25:20;;;;;;;7.20;4.03;;;;;;;;;;5007028;28;20049;-71
2023/09/12 13:27:48;;;;;;;9.88;3.60;;;;;;;;;;5007641;28;20042;-74
2023/09/12 13:30:16;;;;;;;8.32;3.40;;;;;;;;;;5007413;28;20073;-73
2023/09/12 13:32:45;;;;;;;12.45;6.85;;;;;;;;;;5007214;28;20050;-73
2023/09/12 13:35:13;;;;;;;10.13;4.20;;;;;;;;;;5007264;28;20846;-73
2023/09/12 13:37:42;;;;;;;7.95;3.45;;;;;;;;;;5006647;28;20050;-74
2023/09/12 13:40:10;;;;;;;12.50;3.47;;;;;;;;;;5006989;28;20053;-73
2023/09/12 13:42:39;;;;;;;10.65;3.53;;;;;;;;;;5006963;28;20050;-72
2023/09/12 13:45:07;;;;;;;8.88;3.40;;;;;;;;;;5005112;28;20038;-73
2023/09/12 13:47:34;;;;;;;11.45;3.83;;;;;;;;;;4995731;28;20161;-73
2023/09/12 13:50:02;;;;;;;8.43;3.78;;;;;;;;;;5006676;28;20041;-72
2023/09/12 13:52:30;;;;;;;9.52;3.97;;;;;;;;;;5005593;28;20049;-72
2023/09/12 13:54:58;;;;;;;10.23;3.90;;;;;;;;;;5001878;28;20369;-72
2023/09/12 13:57:25;;;;;;;7.40;3.45;;;;;;;;;;4988473;28;20396;-72
2023/09/12 13:59:53;;;;;;;11.65;4.13;;;;;;;;;;4987534;28;20042;-71
2023/09/12 14:02:21;;;;;;;10.82;4.80;;;;;;;;;;4986965;28;20050;-73
2023/09/12 14:04:50;;;;;;;8.48;3.85;;;;;;;;;;4987369;28;20097;-72
2023/09/12 14:07:32;;;;;;;17.25;4.13;;;;;;;;;;4987468;28;20074;-73
2023/09/12 14:10:01;;;;;;;8.95;3.58;;;;;;;;;;5018625;28;20042;-72
2023/09/12 14:12:30;;;;;;;11.00;5.53;;;;;;;;;;5001335;28;20046;-72
2023/09/12 14:14:58;;;;;;;10.70;5.40;;;;;;;;;;5038448;28;20037;-72
2023/09/12 14:17:34;;;;;;;6.93;3.67;;;;;;;;;;5006888;28;20585;-73
2023/09/12 14:20:03;;;;;;;11.63;3.85;;;;;;;;;;5007116;28;20495;-71
2023/09/12 14:22:31;;;;;;;9.15;3.80;;;;;;;;;;5006780;28;20768;-74
2023/09/12 14:25:00;;;;;;;17.35;9.48;;;;;;;;;;5006794;28;20096;-73
2023/09/12 14:27:29;;;;;;;6.60;4.15;;;;;;;;;;5006132;28;20471;-72
2023/09/12 14:29:59;;;;;;;9.35;4.18;;;;;;;;;;4999206;28;20057;-72
2023/09/12 14:32:26;;;;;;;11.90;4.60;;;;;;;;;;4989767;28;20077;-72
2023/09/12 14:34:54;;;;;;;14.15;5.72;;;;;;;;;;5000590;28;20052;-72
2023/09/12 14:37:27;;;;;;;7.65;4.35;;;;;;;;;;4993331;28;20070;-72
2023/09/12 14:39:55;;;;;;;7.13;3.92;;;;;;;;;;4990751;28;20051;-71